createdAt,value
2023-04-12T00:01:53.286Z,7.04
2023-04-12T00:04:55.891Z,6.93
2023-04-12T00:07:58.343Z,6.84
2023-04-12T00:11:02.229Z,6.72
2023-04-12T00:14:04.331Z,6.60
2023-04-12T00:17:06.467Z,6.51
2023-04-12T00:20:12.575Z,6.44
2023-04-12T00:23:15.545Z,6.35
2023-04-12T00:26:17.603Z,6.26
2023-04-12T00:29:19.658Z,6.20
2023-04-12T00:32:21.800Z,6.12
2023-04-12T00:35:23.895Z,6.19
2023-04-12T00:38:26.296Z,6.27
2023-04-12T00:41:29.250Z,6.31
2023-04-12T00:44:33.084Z,6.35
2023-04-12T00:47:39.486Z,6.31
2023-04-12T00:50:44.847Z,6.22
2023-04-12T00:53:47.295Z,6.15
2023-04-12T00:56:50.376Z,6.03
2023-04-12T00:59:52.680Z,5.94
2023-04-12T01:02:55.147Z,5.88
2023-04-12T01:06:14.138Z,5.82
2023-04-12T01:09:34.904Z,5.76
2023-04-12T01:12:50.635Z,5.73
2023-04-12T01:16:05.687Z,5.66
2023-04-12T01:19:20.055Z,5.15
2023-04-12T01:22:49.688Z,5.46
2023-04-12T01:26:35.290Z,5.39
2023-04-12T01:29:38.750Z,5.30
2023-04-12T01:32:43.974Z,5.24
2023-04-12T01:35:49.074Z,5.19
2023-04-12T01:38:52.205Z,5.19
2023-04-12T01:41:59.345Z,5.21
2023-04-12T01:45:02.867Z,5.22
2023-04-12T01:48:07.803Z,5.22
2023-04-12T01:54:33.484Z,5.23
2023-04-12T01:57:37.690Z,5.06
2023-04-12T02:00:42.826Z,5.00
2023-04-12T02:03:50.068Z,4.88
2023-04-12T02:06:52.437Z,4.78
2023-04-12T02:09:54.676Z,4.77
2023-04-12T02:13:00.945Z,4.74
2023-04-12T02:16:03.538Z,4.74
2023-04-12T02:19:08.528Z,4.75
2023-04-12T02:22:11.142Z,4.79
2023-04-12T02:25:13.623Z,4.79
2023-04-12T02:28:16.233Z,4.76
2023-04-12T02:31:18.907Z,4.74
2023-04-12T02:34:21.665Z,4.76
2023-04-12T02:37:27.603Z,4.78
2023-04-12T02:40:30.803Z,4.87
2023-04-12T02:43:34.142Z,4.96
2023-04-12T02:46:36.384Z,5.00
2023-04-12T02:49:38.625Z,5.10
2023-04-12T02:52:41.427Z,5.17
2023-04-12T02:55:43.591Z,5.17
2023-04-12T02:58:46.112Z,5.20
2023-04-12T03:01:50.966Z,5.12
2023-04-12T03:04:55.047Z,5.06
2023-04-12T03:07:57.221Z,4.92
2023-04-12T03:10:59.470Z,4.87
2023-04-12T03:14:01.965Z,4.75
2023-04-12T03:17:04.120Z,4.67
2023-04-12T03:20:10.918Z,4.59
2023-04-12T03:23:13.159Z,4.50
2023-04-12T03:26:15.619Z,4.41
2023-04-12T03:29:18.360Z,4.36
2023-04-12T03:32:21.412Z,4.31
2023-04-12T03:35:25.801Z,4.30
2023-04-12T03:39:28.158Z,4.93
2023-04-12T03:42:33.399Z,4.93
2023-04-12T03:45:36.043Z,4.31
2023-04-12T03:48:38.243Z,4.45
2023-04-12T03:51:43.188Z,4.41
2023-04-12T03:54:45.563Z,4.38
2023-04-12T03:57:48.820Z,4.47
2023-04-12T04:00:51.316Z,4.41
2023-04-12T04:03:53.707Z,4.33
2023-04-12T04:06:56.020Z,4.23
2023-04-12T04:09:58.346Z,4.13
2023-04-12T04:13:01.042Z,4.05
2023-04-12T04:16:05.792Z,3.93
2023-04-12T04:19:08.042Z,3.82
2023-04-12T04:22:10.319Z,3.68
2023-04-12T04:25:14.489Z,3.65
2023-04-12T04:28:17.290Z,3.60
2023-04-12T04:31:19.504Z,3.58
2023-04-12T04:34:22.448Z,3.47
2023-04-12T04:37:25.290Z,3.35
2023-04-12T04:40:29.586Z,3.32
2023-04-12T04:43:31.931Z,3.28
2023-04-12T04:46:34.479Z,3.22
2023-04-12T04:49:37.944Z,3.25
2023-04-12T04:52:41.105Z,3.12
2023-04-12T04:55:43.297Z,3.02
2023-04-12T04:58:46.134Z,2.98
2023-04-12T05:01:48.457Z,3.07
2023-04-12T05:04:51.511Z,3.08
2023-04-12T05:07:53.705Z,3.15
2023-04-12T05:10:57.370Z,3.21
2023-04-12T05:13:59.558Z,3.30
2023-04-12T05:17:01.728Z,3.43
2023-04-12T05:20:08.974Z,3.59
2023-04-12T05:23:17.544Z,3.84
2023-04-12T05:26:19.735Z,4.19
2023-04-12T05:29:22.350Z,4.86
2023-04-12T05:32:25.413Z,5.61
2023-04-12T05:35:27.744Z,6.09
2023-04-12T05:38:30.036Z,6.18
2023-04-12T05:41:32.293Z,6.47
2023-04-12T05:44:39.276Z,6.85
2023-04-12T05:47:41.564Z,6.66
2023-04-12T05:50:54.117Z,7.06
2023-04-12T05:53:56.543Z,7.18
2023-04-12T05:56:58.718Z,7.48
2023-04-12T06:00:00.962Z,7.54
2023-04-12T06:03:05.067Z,7.71
2023-04-12T06:06:08.194Z,8.01
2023-04-12T06:09:11.310Z,8.24
2023-04-12T06:12:13.452Z,8.56
2023-04-12T06:15:15.822Z,9.02
2023-04-12T06:18:18.035Z,9.07
2023-04-12T06:21:20.533Z,9.32
2023-04-12T06:24:22.814Z,9.47
2023-04-12T06:27:25.940Z,9.81
2023-04-12T06:30:28.205Z,10.29
2023-04-12T06:33:30.694Z,10.92
2023-04-12T06:36:32.824Z,11.41
2023-04-12T06:39:35.241Z,11.35
2023-04-12T06:42:37.887Z,11.36
2023-04-12T06:45:40.140Z,11.79
2023-04-12T06:48:42.462Z,11.85
2023-04-12T06:51:44.956Z,12.35
2023-04-12T06:54:47.209Z,12.39
2023-04-12T06:57:52.232Z,12.96
2023-04-12T07:00:54.629Z,13.06
2023-04-12T07:03:57.248Z,13.27
2023-04-12T07:06:59.610Z,13.25
2023-04-12T07:10:03.556Z,13.43
2023-04-12T07:13:08.455Z,13.97
2023-04-12T07:16:10.963Z,13.99
2023-04-12T07:19:13.488Z,13.91
2023-04-12T07:22:16.081Z,13.55
2023-04-12T07:25:18.422Z,13.38
2023-04-12T07:28:21.262Z,14.06
2023-04-12T07:31:24.270Z,14.27
2023-04-12T07:34:26.699Z,14.91
2023-04-12T07:37:29.175Z,15.24
2023-04-12T07:40:31.549Z,16.47
2023-04-12T07:43:34.001Z,16.38
2023-04-12T07:46:36.285Z,15.53
2023-04-12T07:49:38.484Z,16.12
2023-04-12T07:52:40.989Z,15.29
2023-04-12T07:55:43.480Z,15.33
2023-04-12T07:58:45.683Z,14.88
2023-04-12T08:01:47.899Z,15.34
2023-04-12T08:04:53.835Z,16.08
2023-04-12T08:07:59.372Z,16.36
2023-04-12T08:11:03.162Z,17.13
2023-04-12T08:14:05.358Z,17.53
2023-04-12T08:17:07.646Z,15.10
2023-04-12T08:20:10.784Z,15.20
2023-04-12T08:23:13.432Z,14.99
2023-04-12T08:26:15.557Z,15.68
2023-04-12T08:29:18.550Z,14.71
2023-04-12T08:32:20.793Z,14.93
2023-04-12T08:35:24.279Z,15.13
2023-04-12T08:38:41.253Z,15.06
2023-04-12T08:41:47.811Z,15.33
2023-04-12T08:44:52.408Z,15.56
2023-04-12T08:47:54.898Z,15.46
2023-04-12T08:50:58.095Z,15.34
2023-04-12T08:54:00.548Z,15.82
2023-04-12T08:57:06.635Z,17.47
2023-04-12T09:00:11.009Z,18.16
2023-04-12T09:03:13.882Z,18.23
2023-04-12T09:06:16.754Z,18.93
2023-04-12T09:09:19.019Z,17.70
2023-04-12T09:12:24.254Z,18.60
2023-04-12T09:15:27.047Z,18.72
2023-04-12T09:18:29.351Z,19.21
2023-04-12T09:21:34.916Z,20.12
2023-04-12T09:24:53.327Z,19.50
2023-04-12T09:27:57.360Z,19.96
2023-04-12T09:31:01.094Z,19.85
2023-04-12T09:34:10.117Z,20.39
2023-04-12T09:37:16.752Z,20.85
2023-04-12T09:40:24.510Z,20.87
2023-04-12T09:43:39.703Z,19.72
2023-04-12T09:46:52.346Z,20.57
2023-04-12T09:49:54.884Z,20.80
2023-04-12T09:52:58.294Z,22.02
2023-04-12T09:56:05.065Z,21.00
2023-04-12T09:59:07.740Z,21.19
2023-04-12T10:02:19.916Z,20.48
2023-04-12T10:05:26.557Z,22.82
